Palm Beach International Airport
KPBI : now visible

Airfield :











YOU CAN JOIN US ON...

 
LOGIN :

Register | Disclaimer

   EN    FR    IT 

 









Legend :    VFR   Marginal VFR   IFR   Intensive IFR   Very Intensive IFR
Visi :
Ceiling :
>= 8 km
>= 3000ft
5 to 8 km
1000 to 3000 ft
1500m to 5 km
500 to 1000 ft
800 to 1500m
200 to 500 ft
< 800m
< 200 ft
Symbols :   Thunderstorms  Fog  Heavy snow  Heavy precipitations  Wind > 20 kt






- Airport Elevation : 19 ft
- IATA code : PBI


KPBI - Palm Beach International

CURRENT METAR :
  • 241153Z 00000KT 5SM -RA BR FEW150 17/17 A3010 RMK AO2 RAB53 SLP193 P0000 60000 T01720167 10189 20167 53010 $

EXPIRED METARs :
  • 241053Z 00000KT 3SM BR FEW003 18/17 A3008 RMK AO2 SLP186 T01780172 $
  • 240953Z 31005KT 3SM BR FEW003 17/17 A3008 RMK AO2 SLP184 T01720167 $
  • 240945Z 31006KT 3SM BR FEW003 17/16 A3008 RMK AO2 T01670161 $
  • 240931Z 30004KT 1SM R10L/P6000FT BR VV003 17/17 A3007 RMK AO2 T01720167 $
  • 240924Z 31003KT 2 1/2SM BR CLR 18/17 A3007 RMK AO2 T01780172 $

TAF KPBI
Valid from the 24 at 12:00 until the 25 at 12:00 UTC


241134Z 2412/2512 30003KT 5SM BR FEW003
TEMPO 2412/2414 3SM BR SCT003
FM241400 31005KT P6SM FEW025 SCT050
FM241800 09008KT P6SM SCT025 BKN040
KZMA FIR / North America



MET'MAP, your aeronautical weather chart ! - Copyright ORBIFLY December 2007 - Disclaimer

ORBIFLY MET'MAP TEAM :

Programming & Development : Alexandra Zaïnal
Concept & original design : Baudouin d'Aumeries
Assistance for programming : Marc-Olivier Méhu
Technical & hardware support : Manuel Goepfert

Contact : metmap@orbifly.com




SOURCES & CREDITS :

   NOAA       Earth
Advisory